Time;durP1;ratioP1;P1;durP2;ratioP2;P2;SDS_P1;SDS_P2;PMS_P1;PMS_P2;Temp;Humidity;BMP_temperature;BMP_pressure;BME280_temperature;BME280_humidity;BME280_pressure;Samples;Min_cycle;Max_cycle;Signal;HPM_P1;HPM_P2
2023/07/09 00:02:02;;;;;;;;;13.00;12.00;26.30;52.20;;;;;;111710;1238;48983;-62
2023/07/09 00:04:29;;;;;;;;;12.25;10.25;26.30;52.20;;;;;;111512;1238;53827;-62
2023/07/09 00:07:00;;;;;;;;;11.75;11.00;26.30;52.30;;;;;;111522;1238;45116;-62
2023/07/09 00:09:27;;;;;;;;;12.25;10.75;26.30;52.20;;;;;;111719;1241;49709;-62
2023/07/09 00:11:54;;;;;;;;;14.00;12.00;26.20;52.10;;;;;;111509;1238;50100;-65
2023/07/09 00:14:22;;;;;;;;;12.00;11.67;26.20;52.30;;;;;;111679;1238;53876;-63
2023/07/09 00:16:49;;;;;;;;;10.00;9.75;26.20;52.20;;;;;;111707;1241;45808;-62
2023/07/09 00:19:19;;;;;;;;;12.67;10.67;26.20;52.20;;;;;;111469;1238;49612;-62
2023/07/09 00:21:49;;;;;;;;;12.25;12.00;26.20;52.40;;;;;;111584;1238;50578;-63
2023/07/09 00:24:16;;;;;;;;;13.00;12.00;26.20;52.20;;;;;;111341;1238;53812;-63
2023/07/09 00:26:43;;;;;;;;;12.75;10.25;26.10;52.20;;;;;;111654;1247;45610;-64
2023/07/09 00:29:11;;;;;;;;;13.00;10.25;26.20;52.30;;;;;;111842;1237;48848;-63
2023/07/09 00:31:40;;;;;;;;;11.00;10.50;26.10;52.20;;;;;;111719;1241;49285;-63
2023/07/09 00:34:12;;;;;;;;;10.00;8.25;26.10;52.20;;;;;;111403;1239;53729;-63
2023/07/09 00:36:43;;;;;;;;;10.25;9.25;26.10;52.30;;;;;;111756;1241;44968;-63
2023/07/09 00:39:21;;;;;;;;;11.00;10.75;26.10;52.30;;;;;;111647;1241;50443;-63
2023/07/09 00:41:50;;;;;;;;;11.67;10.00;26.10;52.20;;;;;;111660;1241;48967;-63
2023/07/09 00:44:19;;;;;;;;;11.00;9.75;26.10;52.10;;;;;;111519;1241;53635;-62
2023/07/09 00:46:49;;;;;;;;;9.75;8.00;26.10;52.70;;;;;;111672;1240;44004;-61
2023/07/09 00:49:29;;;;;;;;;12.75;10.75;26.10;52.20;;;;;;111446;1244;49374;-62
2023/07/09 00:52:01;;;;;;;;;10.00;9.50;26.10;52.30;;;;;;111598;1241;49204;-61
2023/07/09 00:54:36;;;;;;;;;8.75;8.75;26.10;52.30;;;;;;111328;1242;53712;-61
2023/07/09 00:57:24;;;;;;;;;11.25;10.75;26.10;52.20;;;;;;111618;1238;45093;-61
2023/07/09 00:59:56;;;;;;;;;11.50;10.25;26.10;52.20;;;;;;111327;1244;48786;-62
2023/07/09 01:02:24;;;;;;;;;9.50;9.00;26.10;52.20;;;;;;111585;1238;49554;-62
2023/07/09 01:04:55;;;;;;;;;12.25;10.50;26.10;52.70;;;;;;111715;1238;53776;-63
2023/07/09 01:07:23;;;;;;;;;9.00;8.25;26.10;52.20;;;;;;111434;1238;44627;-61
2023/07/09 01:09:50;;;;;;;;;11.00;10.00;26.10;52.20;;;;;;111672;1238;49103;-62
2023/07/09 01:12:18;;;;;;;;;10.75;10.00;26.10;52.20;;;;;;111751;1238;49477;-65
2023/07/09 01:14:48;;;;;;;;;10.00;9.00;26.10;52.20;;;;;;111655;1237;54149;-62
2023/07/09 01:17:15;;;;;;;;;12.25;10.75;26.10;52.30;;;;;;111676;1241;44420;-61
2023/07/09 01:19:44;;;;;;;;;9.25;9.00;26.10;52.30;;;;;;111713;1238;49489;-62
2023/07/09 01:22:13;;;;;;;;;10.00;9.00;26.10;52.30;;;;;;111677;1241;49265;-63
2023/07/09 01:25:01;;;;;;;;;10.00;9.50;26.00;52.40;;;;;;111708;1241;53559;-62
2023/07/09 01:27:33;;;;;;;;;11.75;11.00;26.00;52.30;;;;;;111678;1238;44515;-63
2023/07/09 01:30:06;;;;;;;;;9.25;8.75;26.00;52.30;;;;;;111688;1241;50390;-62
2023/07/09 01:32:34;;;;;;;;;11.50;10.75;26.00;52.30;;;;;;111724;1244;49330;-63
2023/07/09 01:35:04;;;;;;;;;10.00;9.25;26.00;52.30;;;;;;111658;1241;54834;-63
2023/07/09 01:37:34;;;;;;;;;10.75;9.75;26.00;52.30;;;;;;111329;1241;44251;-62
2023/07/09 01:40:04;;;;;;;;;12.00;11.75;26.00;52.30;;;;;;111638;1241;50342;-62
2023/07/09 01:42:32;;;;;;;;;10.50;10.00;26.00;52.40;;;;;;111677;1238;48921;-65
2023/07/09 01:45:01;;;;;;;;;11.00;10.25;26.00;52.40;;;;;;111695;1247;53459;-62
2023/07/09 01:47:28;;;;;;;;;10.00;9.00;26.00;52.60;;;;;;111697;1236;44641;-62
2023/07/09 01:49:59;;;;;;;;;11.50;10.50;26.00;52.30;;;;;;111620;1241;49821;-61
2023/07/09 01:52:29;;;;;;;;;9.75;9.75;26.00;52.50;;;;;;111709;1241;49230;-62
2023/07/09 01:54:56;;;;;;;;;10.25;10.00;26.00;52.40;;;;;;111330;1240;54700;-60
2023/07/09 01:57:32;;;;;;;;;12.00;11.00;25.90;52.30;;;;;;111507;1238;44910;-62
2023/07/09 02:00:04;;;;;;;;;10.75;10.00;26.00;52.40;;;;;;111497;1238;49596;-62
2023/07/09 02:02:32;;;;;;;;;10.00;10.00;25.90;52.40;;;;;;111839;1238;49307;-62
2023/07/09 02:05:00;;;;;;;;;10.00;9.00;25.90;52.30;;;;;;111691;1238;54231;-61
2023/07/09 02:07:28;;;;;;;;;11.25;10.00;26.00;52.40;;;;;;111695;1238;44968;-64
2023/07/09 02:09:54;;;;;;;;;9.75;9.00;26.00;52.40;;;;;;111219;1241;49862;-62
2023/07/09 02:12:21;;;;;;;;;11.00;9.00;25.90;52.30;;;;;;111594;1238;49043;-62
2023/07/09 02:14:49;;;;;;;;;12.50;10.75;25.90;52.40;;;;;;111753;1238;54157;-62
2023/07/09 02:17:16;;;;;;;;;12.00;10.75;25.90;52.40;;;;;;111686;1238;44310;-63
2023/07/09 02:19:44;;;;;;;;;11.00;9.00;25.90;51.90;;;;;;111567;1242;49406;-62
2023/07/09 02:22:11;;;;;;;;;11.75;10.75;25.90;52.40;;;;;;111708;1241;50443;-63
2023/07/09 02:24:38;;;;;;;;;10.00;9.00;25.90;52.40;;;;;;111577;1241;53721;-63
2023/07/09 02:27:10;;;;;;;;;11.75;10.75;25.90;52.60;;;;;;111655;1241;44901;-62
2023/07/09 02:29:38;;;;;;;;;11.00;9.75;25.90;52.60;;;;;;111713;1241;49283;-65
2023/07/09 02:32:05;;;;;;;;;11.75;10.50;25.90;52.70;;;;;;111669;1237;49523;-62
2023/07/09 02:34:32;;;;;;;;;10.75;9.75;25.90;52.50;;;;;;111689;1242;53562;-62
2023/07/09 02:36:59;;;;;;;;;9.00;8.25;25.90;52.70;;;;;;111683;1241;44398;-62
2023/07/09 02:39:27;;;;;;;;;11.25;11.00;25.90;52.10;;;;;;111675;1241;48791;-64
2023/07/09 02:41:54;;;;;;;;;8.00;8.00;25.90;52.50;;;;;;111512;1238;49392;-62
2023/07/09 02:44:21;;;;;;;;;9.25;8.25;25.90;52.50;;;;;;111660;1244;53701;-63
2023/07/09 02:46:48;;;;;;;;;9.00;8.67;25.90;52.60;;;;;;111679;1241;45601;-62
2023/07/09 02:49:15;;;;;;;;;10.00;9.00;25.90;52.60;;;;;;111695;1243;48789;-61
2023/07/09 02:51:42;;;;;;;;;11.00;9.33;25.90;52.60;;;;;;111688;1241;49607;-63
2023/07/09 02:54:09;;;;;;;;;9.50;9.00;25.90;52.80;;;;;;111709;1241;54565;-62
2023/07/09 02:56:36;;;;;;;;;9.75;8.75;25.80;52.60;;;;;;111718;1241;45476;-62
2023/07/09 02:59:03;;;;;;;;;9.75;8.00;25.80;52.60;;;;;;111523;1237;49092;-63
2023/07/09 03:01:32;;;;;;;;;10.25;9.25;25.80;52.60;;;;;;111368;1242;48541;-62
2023/07/09 03:04:01;;;;;;;;;9.00;8.00;25.80;52.80;;;;;;111428;1238;54320;-62
2023/07/09 03:06:29;;;;;;;;;10.75;9.00;25.80;52.60;;;;;;111674;1238;44154;-62
2023/07/09 03:08:56;;;;;;;;;10.00;9.00;25.80;52.60;;;;;;111501;1241;50576;-62
2023/07/09 03:11:23;;;;;;;;;8.00;7.00;25.80;52.60;;;;;;111502;1242;50378;-62
2023/07/09 03:13:50;;;;;;;;;12.00;10.00;25.80;52.60;;;;;;111491;1238;54087;-62
2023/07/09 03:16:19;;;;;;;;;10.25;9.50;25.80;52.60;;;;;;111595;1241;44886;-61
2023/07/09 03:18:46;;;;;;;;;10.67;9.67;25.80;52.60;;;;;;111596;1241;48938;-60
2023/07/09 03:21:13;;;;;;;;;10.00;9.25;25.80;52.80;;;;;;111457;1243;49154;-63
2023/07/09 03:23:41;;;;;;;;;11.00;9.00;25.80;52.60;;;;;;111336;1241;54728;-62
2023/07/09 03:26:08;;;;;;;;;10.00;9.00;25.80;52.60;;;;;;111680;1238;44383;-63
2023/07/09 03:28:38;;;;;;;;;10.50;9.00;25.80;52.60;;;;;;111700;1239;49420;-61
2023/07/09 03:31:05;;;;;;;;;11.00;10.25;25.80;52.50;;;;;;111700;1241;49987;-62
2023/07/09 03:33:31;;;;;;;;;9.25;8.25;25.80;52.50;;;;;;111484;1241;53636;-62
2023/07/09 03:35:58;;;;;;;;;12.00;10.00;25.80;52.60;;;;;;111327;1243;44246;-62
2023/07/09 03:38:25;;;;;;;;;10.00;9.00;25.80;52.60;;;;;;111347;1244;49560;-62
2023/07/09 03:40:53;;;;;;;;;10.00;9.00;25.80;52.60;;;;;;111647;1241;50340;-61
2023/07/09 03:43:21;;;;;;;;;10.33;10.00;25.80;52.60;;;;;;111308;1237;53589;-61
2023/07/09 03:45:48;;;;;;;;;12.00;11.00;25.80;52.60;;;;;;111672;1238;44362;-61
2023/07/09 03:48:17;;;;;;;;;12.00;10.00;25.80;52.80;;;;;;111444;1239;48702;-60
2023/07/09 03:50:46;;;;;;;;;12.00;9.00;25.80;52.60;;;;;;111622;1238;49827;-61
2023/07/09 03:53:14;;;;;;;;;10.50;9.00;25.80;52.60;;;;;;111459;1242;53444;-60
2023/07/09 03:55:41;;;;;;;;;10.00;10.00;25.80;52.60;;;;;;111621;1241;44426;-62
2023/07/09 03:58:08;;;;;;;;;9.00;8.25;25.80;52.60;;;;;;111660;1239;49810;-62
2023/07/09 04:00:37;;;;;;;;;8.75;8.25;25.80;52.80;;;;;;111708;1238;49339;-61
2023/07/09 04:03:04;;;;;;;;;9.00;8.25;25.70;52.60;;;;;;111574;1241;53875;-62
2023/07/09 04:05:31;;;;;;;;;9.50;8.50;25.70;52.60;;;;;;111283;1244;45179;-62
2023/07/09 04:07:58;;;;;;;;;10.00;8.75;25.70;52.60;;;;;;111589;1238;49397;-61
2023/07/09 04:10:25;;;;;;;;;9.00;8.75;25.70;52.60;;;;;;111513;1241;49725;-64
2023/07/09 04:12:53;;;;;;;;;9.50;8.00;25.70;52.70;;;;;;111681;1238;53334;-63
2023/07/09 04:15:20;;;;;;;;;8.00;7.25;25.70;52.70;;;;;;111429;1238;44624;-65
2023/07/09 04:17:47;;;;;;;;;9.00;8.00;25.70;52.70;;;;;;111656;1241;49034;-67
2023/07/09 04:20:14;;;;;;;;;8.75;8.00;25.70;52.90;;;;;;111677;1237;49238;-64
2023/07/09 04:22:40;;;;;;;;;10.00;9.25;25.70;52.70;;;;;;111720;1237;54145;-64
2023/07/09 04:25:10;;;;;;;;;8.75;8.00;25.70;52.70;;;;;;111168;1244;44085;-64
2023/07/09 04:27:38;;;;;;;;;10.25;9.25;25.70;52.70;;;;;;111747;1238;49237;-64
2023/07/09 04:30:10;;;;;;;;;10.00;9.25;25.70;52.70;;;;;;111302;1238;49489;-64
2023/07/09 04:32:37;;;;;;;;;9.50;8.50;25.70;52.70;;;;;;111522;1238;53406;-64
2023/07/09 04:35:07;;;;;;;;;9.00;8.75;25.70;52.70;;;;;;111587;1241;44892;-64
2023/07/09 04:37:34;;;;;;;;;9.25;8.25;25.70;52.70;;;;;;111472;1238;48385;-63
2023/07/09 04:40:02;;;;;;;;;9.25;8.25;25.70;52.70;;;;;;111668;1238;49474;-64
2023/07/09 04:42:29;;;;;;;;;11.00;10.00;25.70;52.70;;;;;;111758;1241;54100;-63
2023/07/09 04:44:56;;;;;;;;;11.00;8.50;25.60;52.70;;;;;;111725;1238;45600;-64
2023/07/09 04:47:23;;;;;;;;;9.33;8.67;25.60;52.70;;;;;;111686;1239;49045;-65
2023/07/09 04:49:50;;;;;;;;;11.00;11.00;25.70;52.80;;;;;;111715;1241;49528;-64
2023/07/09 04:52:17;;;;;;;;;8.75;8.00;25.60;52.70;;;;;;111635;1241;53410;-65
2023/07/09 04:54:44;;;;;;;;;10.25;9.25;25.60;52.70;;;;;;111557;1237;44404;-65
2023/07/09 04:57:12;;;;;;;;;10.50;10.00;25.60;52.70;;;;;;111643;1238;48956;-65
2023/07/09 04:59:39;;;;;;;;;9.00;8.00;25.60;52.70;;;;;;111539;1242;49829;-64
2023/07/09 05:02:06;;;;;;;;;8.00;7.25;25.60;52.70;;;;;;111674;1238;53544;-64
2023/07/09 05:04:33;;;;;;;;;9.25;8.25;25.60;52.80;;;;;;111689;1241;44437;-66
2023/07/09 05:07:00;;;;;;;;;9.00;9.00;25.60;52.80;;;;;;111796;1237;49400;-65
2023/07/09 05:09:27;;;;;;;;;10.33;9.33;25.60;52.80;;;;;;111693;1237;49267;-64
2023/07/09 05:11:54;;;;;;;;;10.33;9.33;25.60;52.70;;;;;;111313;1241;53874;-64
2023/07/09 05:14:21;;;;;;;;;10.00;9.25;25.60;52.70;;;;;;111273;1241;45282;-65
2023/07/09 05:16:48;;;;;;;;;10.00;8.75;25.60;52.80;;;;;;111423;1242;49123;-64
2023/07/09 05:19:15;;;;;;;;;9.00;8.00;25.60;52.70;;;;;;111343;1241;49610;-66
2023/07/09 05:21:42;;;;;;;;;10.75;9.00;25.70;52.70;;;;;;111628;1242;53279;-65
2023/07/09 05:24:09;;;;;;;;;8.25;8.00;25.70;53.00;;;;;;112008;1241;45215;-66
2023/07/09 05:26:36;;;;;;;;;9.75;9.00;25.70;52.80;;;;;;111788;1237;48903;-65
2023/07/09 05:29:05;;;;;;;;;9.00;8.50;25.70;53.00;;;;;;111692;1241;49183;-65
2023/07/09 05:31:33;;;;;;;;;10.00;8.00;25.70;52.70;;;;;;111758;1238;53414;-66
2023/07/09 05:34:00;;;;;;;;;9.67;8.00;25.70;52.70;;;;;;111831;1238;44941;-65
2023/07/09 05:36:28;;;;;;;;;10.00;9.00;25.70;52.70;;;;;;110846;1238;1244261;-64
2023/07/09 05:38:55;;;;;;;;;9.75;9.75;25.70;52.70;;;;;;111799;1241;48804;-65
2023/07/09 05:41:23;;;;;;;;;11.00;9.00;25.70;52.90;;;;;;111643;1241;54253;-64
2023/07/09 05:43:51;;;;;;;;;9.67;8.67;25.70;52.70;;;;;;111869;1238;44160;-65
2023/07/09 05:46:19;;;;;;;;;9.25;8.25;25.70;52.70;;;;;;111370;1238;48795;-65
2023/07/09 05:48:46;;;;;;;;;10.25;9.00;25.70;52.90;;;;;;111485;1240;48856;-65
2023/07/09 05:51:13;;;;;;;;;9.00;8.00;25.70;52.60;;;;;;111754;1237;53214;-64
2023/07/09 05:53:40;;;;;;;;;8.25;7.25;25.70;52.80;;;;;;111932;1241;44253;-64
2023/07/09 05:56:08;;;;;;;;;10.25;10.00;25.70;52.70;;;;;;111558;1241;49070;-64
2023/07/09 05:58:35;;;;;;;;;9.00;8.75;25.70;52.70;;;;;;111775;1237;48955;-62
2023/07/09 06:01:02;;;;;;;;;10.00;9.00;25.70;52.70;;;;;;111358;1238;53676;-66
2023/07/09 06:03:31;;;;;;;;;9.00;7.50;25.70;52.70;;;;;;111701;1238;44792;-68
2023/07/09 06:05:59;;;;;;;;;9.67;9.00;25.70;52.70;;;;;;111747;1238;49112;-68
2023/07/09 06:08:27;;;;;;;;;9.75;8.75;25.70;52.70;;;;;;111827;1238;49766;-66
2023/07/09 06:10:59;;;;;;;;;9.00;7.75;25.70;52.70;;;;;;111673;1238;54064;-68
2023/07/09 06:13:27;;;;;;;;;8.75;8.00;25.70;52.80;;;;;;111673;1241;44177;-67
2023/07/09 06:15:55;;;;;;;;;9.50;9.00;25.70;52.80;;;;;;111369;1244;49059;-67
2023/07/09 06:18:23;;;;;;;;;9.00;8.00;25.70;52.80;;;;;;111717;1238;49349;-71
2023/07/09 06:20:52;;;;;;;;;10.00;9.33;25.70;53.00;;;;;;111861;1244;54009;-69
2023/07/09 06:23:19;;;;;;;;;10.00;9.75;25.70;53.10;;;;;;111664;1237;44959;-68
2023/07/09 06:25:47;;;;;;;;;11.75;11.00;25.70;52.80;;;;;;111680;1241;49393;-71
2023/07/09 06:28:15;;;;;;;;;12.00;11.33;25.80;52.70;;;;;;111755;1238;49842;-70
2023/07/09 06:30:43;;;;;;;;;12.00;11.00;25.80;52.30;;;;;;111750;1238;53462;-69
2023/07/09 06:33:12;;;;;;;;;13.75;12.00;25.80;51.50;;;;;;111643;1238;44611;-72
2023/07/09 06:35:39;;;;;;;;;13.00;12.25;25.80;51.30;;;;;;111820;1241;49496;-72
2023/07/09 06:38:06;;;;;;;;;11.33;11.00;25.90;51.80;;;;;;111494;1236;49158;-71
2023/07/09 06:40:34;;;;;;;;;11.75;11.00;25.90;51.50;;;;;;111794;1237;53985;-69
2023/07/09 06:43:01;;;;;;;;;14.00;13.00;25.90;51.90;;;;;;111865;1241;45233;-70
2023/07/09 06:45:28;;;;;;;;;12.00;11.00;25.90;51.70;;;;;;111931;1239;48946;-70
2023/07/09 06:47:55;;;;;;;;;13.75;13.25;25.90;51.70;;;;;;111824;1238;49065;-70
2023/07/09 06:50:22;;;;;;;;;12.00;10.67;26.00;51.70;;;;;;111616;1241;53463;-65
2023/07/09 06:52:49;;;;;;;;;13.00;10.75;26.00;51.80;;;;;;111799;1242;45124;-68
2023/07/09 06:55:16;;;;;;;;;13.00;13.00;26.00;51.70;;;;;;112081;1238;49688;-69
2023/07/09 06:57:43;;;;;;;;;19.67;16.00;26.00;52.10;;;;;;111640;1239;48998;-71
2023/07/09 07:00:10;;;;;;;;;17.33;14.33;26.10;52.10;;;;;;111785;1241;54186;-70
2023/07/09 07:02:37;;;;;;;;;20.00;17.00;26.10;51.80;;;;;;111606;1238;44977;-70
2023/07/09 07:05:04;;;;;;;;;14.50;12.50;26.10;51.90;;;;;;111621;1238;49006;-70
2023/07/09 07:07:31;;;;;;;;;15.50;14.75;26.10;51.90;;;;;;111806;1238;49261;-71
2023/07/09 07:09:58;;;;;;;;;17.25;14.00;26.10;52.40;;;;;;111800;1237;54013;-70
2023/07/09 07:12:29;;;;;;;;;16.00;14.33;26.10;51.90;;;;;;111822;1241;45645;-71
2023/07/09 07:14:56;;;;;;;;;15.75;14.25;26.20;52.00;;;;;;111908;1238;49403;-70
2023/07/09 07:17:23;;;;;;;;;15.00;13.00;26.20;52.10;;;;;;111521;1241;49955;-70
2023/07/09 07:19:51;;;;;;;;;16.50;15.75;26.20;52.00;;;;;;111677;1241;53879;-70
2023/07/09 07:22:18;;;;;;;;;14.50;14.00;26.20;52.10;;;;;;111832;1237;44745;-70
2023/07/09 07:24:45;;;;;;;;;13.67;13.00;26.20;52.10;;;;;;112081;1242;49059;-70
2023/07/09 07:27:11;;;;;;;;;19.67;15.33;26.20;52.10;;;;;;111789;1241;49311;-70
2023/07/09 07:29:38;;;;;;;;;18.50;14.75;26.20;52.10;;;;;;111663;1241;53451;-70
2023/07/09 07:32:06;;;;;;;;;18.00;15.50;26.30;52.30;;;;;;111765;1241;44553;-70
2023/07/09 07:34:34;;;;;;;;;13.00;11.50;26.30;52.30;;;;;;112075;1237;49058;-71
2023/07/09 07:37:01;;;;;;;;;16.00;13.00;26.30;52.30;;;;;;111801;1238;49508;-70
2023/07/09 07:39:27;;;;;;;;;14.00;12.25;26.30;52.40;;;;;;111763;1241;53558;-70
2023/07/09 07:41:55;;;;;;;;;15.00;13.00;26.30;52.50;;;;;;111768;1239;45787;-70
2023/07/09 07:44:23;;;;;;;;;16.00;13.25;26.30;52.30;;;;;;111964;1246;49123;-70
2023/07/09 07:46:50;;;;;;;;;14.00;13.50;26.40;52.40;;;;;;111704;1245;49750;-71
2023/07/09 07:49:17;;;;;;;;;14.33;12.00;26.40;52.30;;;;;;111638;1239;53900;-70
2023/07/09 07:51:44;;;;;;;;;15.00;13.00;26.40;52.30;;;;;;111627;1237;44279;-69
2023/07/09 07:54:11;;;;;;;;;13.75;13.00;26.40;52.40;;;;;;111985;1241;50017;-70
2023/07/09 07:56:38;;;;;;;;;14.75;13.00;26.40;52.40;;;;;;111763;1238;49701;-70
2023/07/09 07:59:06;;;;;;;;;15.33;14.00;26.40;52.40;;;;;;111644;1241;53911;-71
2023/07/09 08:01:35;;;;;;;;;14.50;13.00;26.50;52.40;;;;;;111835;1240;44538;-70
2023/07/09 08:04:03;;;;;;;;;12.25;10.50;26.50;52.60;;;;;;111640;1238;50443;-70
2023/07/09 08:06:31;;;;;;;;;15.00;11.50;26.50;52.40;;;;;;111694;1241;49644;-71
2023/07/09 08:08:58;;;;;;;;;11.50;11.00;26.50;52.40;;;;;;111725;1238;54058;-71
2023/07/09 08:11:25;;;;;;;;;12.75;12.00;26.50;52.40;;;;;;111623;1238;44841;-70
2023/07/09 08:13:52;;;;;;;;;16.00;14.67;26.50;52.60;;;;;;112102;1241;49365;-70
2023/07/09 08:16:19;;;;;;;;;13.75;12.75;26.60;52.50;;;;;;111360;1241;49865;-70
2023/07/09 08:18:46;;;;;;;;;13.25;11.50;26.60;52.50;;;;;;111775;1241;53793;-71
2023/07/09 08:21:13;;;;;;;;;11.50;11.00;26.60;52.40;;;;;;111800;1238;44530;-71
2023/07/09 08:23:40;;;;;;;;;10.33;9.33;26.70;52.40;;;;;;112061;1238;49452;-70
2023/07/09 08:26:07;;;;;;;;;14.00;12.00;26.70;52.50;;;;;;111392;1244;49876;-70
2023/07/09 08:28:35;;;;;;;;;17.00;14.00;26.70;52.40;;;;;;111826;1237;54281;-69
2023/07/09 08:31:02;;;;;;;;;11.75;11.00;26.70;52.40;;;;;;111830;1238;44944;-72
2023/07/09 08:33:30;;;;;;;;;11.00;10.00;26.80;52.40;;;;;;111964;1241;50517;-71
2023/07/09 08:35:57;;;;;;;;;14.75;10.25;26.80;52.40;;;;;;111358;1244;49737;-70
2023/07/09 08:38:24;;;;;;;;;13.25;12.25;26.80;52.10;;;;;;111513;1238;53325;-71
2023/07/09 08:41:00;;;;;;;;;11.25;10.50;26.90;52.40;;;;;;111703;1238;44928;-71
2023/07/09 08:43:42;;;;;;;;;12.50;11.25;26.90;52.40;;;;;;111966;1238;49643;-72
2023/07/09 08:46:15;;;;;;;;;14.50;12.50;26.90;52.40;;;;;;111785;1241;49705;-72
2023/07/09 08:48:47;;;;;;;;;11.25;9.25;27.00;52.40;;;;;;111763;1241;54961;-69
2023/07/09 08:51:38;;;;;;;;;12.00;11.00;27.00;52.40;;;;;;111606;1244;44334;-71
2023/07/09 08:54:13;;;;;;;;;12.00;10.00;27.00;52.50;;;;;;112127;1237;49613;-70
2023/07/09 08:56:41;;;;;;;;;13.67;12.33;27.10;51.90;;;;;;111653;1238;49237;-71
2023/07/09 08:59:09;;;;;;;;;11.00;10.50;27.10;52.30;;;;;;111457;1240;54624;-71
2023/07/09 09:01:59;;;;;;;;;13.67;12.00;27.20;52.30;;;;;;111617;1241;44644;-73
2023/07/09 09:04:31;;;;;;;;;12.00;10.00;27.20;52.30;;;;;;112106;1237;49005;-69
2023/07/09 09:07:07;;;;;;;;;12.00;10.00;27.20;51.80;;;;;;111612;1244;49375;-70
2023/07/09 09:09:40;;;;;;;;;13.00;10.00;27.30;52.20;;;;;;111564;1238;53480;-71
2023/07/09 09:12:18;;;;;;;;;11.00;10.00;27.30;52.20;;;;;;111755;1241;45734;-70
2023/07/09 09:14:52;;;;;;;;;12.75;11.00;27.30;52.10;;;;;;112046;1238;49325;-69
2023/07/09 09:17:20;;;;;;;;;12.33;11.00;27.40;52.20;;;;;;111437;1238;49640;-70
2023/07/09 09:19:58;;;;;;;;;10.00;8.00;27.40;52.10;;;;;;111699;1243;53077;-73
2023/07/09 09:22:30;;;;;;;;;11.25;10.00;27.40;52.30;;;;;;111625;1239;44199;-71
2023/07/09 09:25:04;;;;;;;;;12.50;9.75;27.50;52.20;;;;;;111917;1238;49662;-70
2023/07/09 09:27:31;;;;;;;;;11.00;10.00;27.50;52.10;;;;;;111733;1241;49532;-68
2023/07/09 09:29:58;;;;;;;;;11.00;9.00;27.60;52.10;;;;;;111799;1241;53751;-70
2023/07/09 09:32:27;;;;;;;;;15.00;12.00;27.60;52.30;;;;;;111807;1241;45650;-68
2023/07/09 09:34:55;;;;;;;;;11.67;8.67;27.60;52.10;;;;;;112122;1239;49199;-68
2023/07/09 09:37:30;;;;;;;;;13.00;11.33;27.60;52.10;;;;;;111663;1241;49978;-68
2023/07/09 09:39:59;;;;;;;;;10.00;9.00;27.60;52.00;;;;;;111777;1237;53398;-68
2023/07/09 09:42:26;;;;;;;;;13.00;12.00;27.70;52.00;;;;;;111821;1241;45615;-69
2023/07/09 09:44:54;;;;;;;;;12.50;11.00;27.70;52.00;;;;;;112097;1237;49356;-67
2023/07/09 09:47:26;;;;;;;;;12.00;9.75;27.70;52.20;;;;;;111788;1241;48854;-69
2023/07/09 09:49:53;;;;;;;;;11.00;10.25;27.80;52.20;;;;;;111609;1238;53811;-68
2023/07/09 09:52:29;;;;;;;;;10.00;9.00;27.80;52.10;;;;;;111645;1238;45319;-69
2023/07/09 09:55:16;;;;;;;;;11.50;11.50;27.80;51.90;;;;;;112100;1241;49809;-68
2023/07/09 09:57:51;;;;;;;;;12.25;11.25;27.80;51.90;;;;;;111413;1238;49779;-68
2023/07/09 10:00:22;;;;;;;;;9.33;9.00;27.90;51.90;;;;;;111382;1243;53405;-68
2023/07/09 10:02:49;;;;;;;;;10.00;10.00;27.90;51.80;;;;;;111762;1241;44416;-68
2023/07/09 10:05:21;;;;;;;;;12.25;9.00;27.90;51.90;;;;;;112008;1238;49661;-68
2023/07/09 10:08:00;;;;;;;;;11.00;9.00;28.00;51.80;;;;;;111680;1237;49756;-67
2023/07/09 10:10:30;;;;;;;;;8.50;8.00;28.00;51.80;;;;;;111473;1238;53603;-68
2023/07/09 10:13:32;;;;;;;;;10.00;9.00;28.00;51.70;;;;;;111492;1239;44957;-70
2023/07/09 10:16:07;;;;;;;;;10.00;9.25;28.00;51.70;;;;;;111810;1237;49152;-68
2023/07/09 10:18:47;;;;;;;;;9.50;9.00;28.00;51.90;;;;;;111791;1241;49524;-69
2023/07/09 10:21:33;;;;;;;;;10.33;9.33;28.00;51.70;;;;;;111464;1239;53405;-69
2023/07/09 10:24:16;;;;;;;;;9.00;8.50;28.10;51.80;;;;;;111799;1240;44807;-67
2023/07/09 10:26:53;;;;;;;;;10.00;7.67;28.10;51.90;;;;;;111774;1241;49584;-70
2023/07/09 10:29:24;;;;;;;;;10.00;9.75;28.10;51.60;;;;;;111593;1238;48590;-68
2023/07/09 10:32:03;;;;;;;;;10.50;10.00;28.10;51.60;;;;;;111784;1238;53513;-69
2023/07/09 10:34:36;;;;;;;;;9.00;7.00;28.10;51.60;;;;;;112071;1237;45079;-68
2023/07/09 10:37:22;;;;;;;;;9.67;8.00;28.20;51.70;;;;;;111793;1241;49179;-68
2023/07/09 10:39:52;;;;;;;;;9.00;8.00;28.20;52.10;;;;;;111627;1238;48654;-68
2023/07/09 10:42:35;;;;;;;;;8.25;7.25;28.20;51.80;;;;;;111641;1242;55099;-68
2023/07/09 10:45:09;;;;;;;;;10.00;8.33;28.20;51.60;;;;;;112106;1239;44903;-68
2023/07/09 10:47:50;;;;;;;;;10.00;9.75;28.20;51.70;;;;;;111557;1238;49001;-69
2023/07/09 10:50:39;;;;;;;;;9.50;7.25;28.20;51.70;;;;;;111838;1238;49612;-68
2023/07/09 10:53:29;;;;;;;;;9.00;8.50;28.30;51.50;;;;;;111616;1244;53050;-69
2023/07/09 10:56:04;;;;;;;;;10.25;9.75;28.30;51.60;;;;;;111646;1238;44952;-69
2023/07/09 10:58:50;;;;;;;;;10.00;9.00;28.30;51.50;;;;;;111816;1241;49317;-69
2023/07/09 11:01:21;;;;;;;;;9.00;9.00;28.30;51.60;;;;;;111786;1241;49898;-69
2023/07/09 11:03:55;;;;;;;;;9.00;8.00;28.30;51.40;;;;;;112075;1238;54675;-70
2023/07/09 11:06:29;;;;;;;;;8.00;7.00;28.30;51.40;;;;;;111623;1238;44802;-70
2023/07/09 11:08:57;;;;;;;;;10.00;9.00;28.40;51.50;;;;;;111608;1241;49185;-70
2023/07/09 11:11:40;;;;;;;;;10.00;8.25;28.40;51.90;;;;;;111426;1241;48809;-70
2023/07/09 11:14:14;;;;;;;;;8.25;8.00;28.40;51.40;;;;;;112099;1238;53451;-69
2023/07/09 11:16:43;;;;;;;;;10.50;7.75;28.40;51.40;;;;;;111803;1236;44093;-70
2023/07/09 11:19:18;;;;;;;;;9.25;9.00;28.50;51.40;;;;;;111601;1241;49297;-70
2023/07/09 11:22:13;;;;;;;;;9.67;8.67;28.40;51.40;;;;;;111798;1241;49775;-70
2023/07/09 11:25:09;;;;;;;;;8.50;7.75;28.40;51.30;;;;;;111731;1238;54489;-70
2023/07/09 11:27:56;;;;;;;;;9.25;7.25;28.50;51.40;;;;;;111658;1241;44589;-70
2023/07/09 11:30:28;;;;;;;;;9.00;9.00;28.50;51.50;;;;;;111613;1238;49075;-70
2023/07/09 11:33:01;;;;;;;;;9.75;8.00;28.50;51.20;;;;;;111809;1238;49016;-70
2023/07/09 11:35:30;;;;;;;;;9.00;8.00;28.50;51.20;;;;;;111782;1241;53984;-70
2023/07/09 11:38:07;;;;;;;;;8.00;7.50;28.50;51.20;;;;;;111805;1238;44272;-69
2023/07/09 11:40:48;;;;;;;;;9.00;8.00;28.50;51.20;;;;;;111420;1239;49081;-70
2023/07/09 11:43:33;;;;;;;;;9.25;8.00;28.60;51.30;;;;;;112074;1237;48980;-71
2023/07/09 11:46:09;;;;;;;;;8.25;7.25;28.60;51.30;;;;;;111789;1238;53359;-71
2023/07/09 11:48:39;;;;;;;;;10.00;8.25;28.60;51.20;;;;;;111824;1241;44630;-70
2023/07/09 11:51:15;;;;;;;;;10.00;8.00;28.60;51.20;;;;;;111807;1241;49579;-70
2023/07/09 11:53:47;;;;;;;;;8.00;7.25;28.60;51.20;;;;;;111610;1244;50775;-70
2023/07/09 11:56:14;;;;;;;;;10.25;8.25;28.60;51.20;;;;;;111744;1238;53617;-71
2023/07/09 11:58:49;;;;;;;;;9.00;8.00;28.70;51.20;;;;;;111756;1241;45114;-71
2023/07/09 12:01:19;;;;;;;;;9.00;8.00;28.70;51.20;;;;;;111417;1241;48491;-70
2023/07/09 12:03:48;;;;;;;;;9.25;7.25;28.70;51.20;;;;;;111785;1241;50104;-71
2023/07/09 12:06:21;;;;;;;;;9.75;8.75;28.70;51.20;;;;;;111412;1244;53374;-70
2023/07/09 12:08:50;;;;;;;;;9.00;7.00;28.70;50.70;;;;;;111796;1241;44359;-71
2023/07/09 12:11:31;;;;;;;;;8.00;7.25;28.70;51.20;;;;;;111434;1244;49447;-70
2023/07/09 12:14:11;;;;;;;;;9.33;8.33;28.70;51.20;;;;;;111909;1241;49235;-70
2023/07/09 12:16:41;;;;;;;;;8.00;7.00;28.70;51.20;;;;;;111813;1238;53464;-68
2023/07/09 12:19:10;;;;;;;;;8.25;8.00;28.70;51.20;;;;;;111811;1238;44672;-68
2023/07/09 12:21:39;;;;;;;;;8.75;6.75;28.70;51.10;;;;;;111787;1237;48458;-68
2023/07/09 12:24:25;;;;;;;;;9.33;8.33;28.70;51.10;;;;;;112058;1241;49380;-67
2023/07/09 12:26:58;;;;;;;;;9.00;9.00;28.70;51.10;;;;;;111764;1237;53502;-70
2023/07/09 12:29:26;;;;;;;;;7.25;7.00;28.70;51.10;;;;;;111451;1243;44877;-70
2023/07/09 12:31:53;;;;;;;;;10.00;9.75;28.70;51.10;;;;;;111454;1238;49395;-69
2023/07/09 12:34:20;;;;;;;;;9.33;7.33;28.70;51.10;;;;;;111739;1239;49170;-70
2023/07/09 12:36:49;;;;;;;;;9.00;8.25;28.70;51.10;;;;;;111776;1241;53932;-72
2023/07/09 12:39:23;;;;;;;;;9.00;8.00;28.70;51.10;;;;;;111660;1238;44649;-70
2023/07/09 12:41:54;;;;;;;;;8.75;8.00;28.70;51.10;;;;;;111614;1241;49226;-69